createdAt,value
2023-03-12T00:00:11.281Z,2.60
2023-03-12T00:02:39.130Z,2.80
2023-03-12T00:05:07.166Z,2.47
2023-03-12T00:07:36.583Z,2.03
2023-03-12T00:10:05.739Z,2.60
2023-03-12T00:12:33.423Z,3.20
2023-03-12T00:15:01.009Z,2.12
2023-03-12T00:17:30.291Z,2.15
2023-03-12T00:19:57.836Z,2.33
2023-03-12T00:22:25.937Z,2.55
2023-03-12T00:24:54.912Z,2.95
2023-03-12T00:27:23.211Z,2.62
2023-03-12T00:29:54.753Z,2.80
2023-03-12T00:32:23.141Z,3.10
2023-03-12T00:34:55.722Z,3.12
2023-03-12T00:37:23.540Z,3.45
2023-03-12T00:39:51.074Z,2.90
2023-03-12T00:42:19.332Z,2.75
2023-03-12T00:44:47.866Z,2.97
2023-03-12T00:47:15.410Z,3.00
2023-03-12T00:49:43.472Z,3.20
2023-03-12T00:52:11.518Z,3.10
2023-03-12T00:54:39.062Z,2.80
2023-03-12T00:57:06.704Z,2.23
2023-03-12T00:59:35.919Z,2.65
2023-03-12T01:02:03.820Z,2.90
2023-03-12T01:04:31.524Z,2.62
2023-03-12T01:06:59.358Z,2.62
2023-03-12T01:09:26.941Z,3.00
2023-03-12T01:11:54.510Z,2.47
2023-03-12T01:14:22.537Z,2.85
2023-03-12T01:16:52.394Z,3.00
2023-03-12T01:19:20.308Z,2.80
2023-03-12T01:21:48.213Z,2.90
2023-03-12T01:24:15.688Z,3.20
2023-03-12T01:26:44.497Z,2.58
2023-03-12T01:29:12.344Z,2.60
2023-03-12T01:31:40.263Z,2.90
2023-03-12T01:34:10.871Z,3.00
2023-03-12T01:36:38.629Z,2.72
2023-03-12T01:39:06.140Z,2.58
2023-03-12T01:41:34.148Z,3.05
2023-03-12T01:44:03.851Z,2.65
2023-03-12T01:46:37.141Z,2.40
2023-03-12T01:49:13.347Z,2.78
2023-03-12T01:52:00.328Z,2.87
2023-03-12T01:54:36.248Z,2.92
2023-03-12T01:57:05.340Z,3.15
2023-03-12T01:59:39.548Z,2.87
2023-03-12T02:02:08.071Z,2.42
2023-03-12T02:04:37.113Z,2.53
2023-03-12T02:07:08.426Z,2.53
2023-03-12T02:09:41.148Z,2.70
2023-03-12T02:12:09.459Z,2.27
2023-03-12T02:14:37.992Z,2.80
2023-03-12T02:17:06.477Z,2.72
2023-03-12T02:19:49.317Z,2.75
2023-03-12T02:22:17.490Z,3.05
2023-03-12T02:24:50.309Z,2.87
2023-03-12T02:27:19.261Z,2.90
2023-03-12T02:29:47.084Z,2.62
2023-03-12T02:32:23.075Z,2.20
2023-03-12T02:34:51.303Z,3.05
2023-03-12T02:37:19.573Z,2.70
2023-03-12T02:39:56.216Z,2.70
2023-03-12T02:42:24.355Z,3.20
2023-03-12T02:44:51.902Z,3.00
2023-03-12T02:47:19.505Z,3.03
2023-03-12T02:49:47.412Z,2.67
2023-03-12T02:52:14.980Z,2.60
2023-03-12T02:54:42.591Z,2.80
2023-03-12T02:57:10.910Z,3.30
2023-03-12T02:59:39.146Z,3.08
2023-03-12T03:02:07.032Z,2.97
2023-03-12T03:04:35.470Z,3.00
2023-03-12T03:07:03.301Z,2.67
2023-03-12T03:09:31.173Z,2.78
2023-03-12T03:11:59.558Z,3.10
2023-03-12T03:14:27.273Z,2.73
2023-03-12T03:16:55.580Z,2.42
2023-03-12T03:19:23.743Z,2.95
2023-03-12T03:21:51.229Z,2.85
2023-03-12T03:24:18.758Z,2.62
2023-03-12T03:26:46.563Z,2.50
2023-03-12T03:29:14.525Z,2.67
2023-03-12T03:31:42.056Z,2.70
2023-03-12T03:34:09.866Z,3.10
2023-03-12T03:36:37.506Z,2.78
2023-03-12T03:39:05.315Z,2.90
2023-03-12T03:41:33.434Z,2.72
2023-03-12T03:44:01.156Z,2.55
2023-03-12T03:46:29.057Z,2.65
2023-03-12T03:48:58.149Z,2.95
2023-03-12T03:51:25.835Z,2.67
2023-03-12T03:53:54.451Z,2.62
2023-03-12T03:56:22.741Z,3.15
2023-03-12T03:58:50.595Z,3.00
2023-03-12T04:01:19.058Z,2.87
2023-03-12T04:03:47.382Z,2.60
2023-03-12T04:06:15.017Z,2.12
2023-03-12T04:08:42.927Z,2.55
2023-03-12T04:11:17.203Z,2.62
2023-03-12T04:13:45.605Z,2.90
2023-03-12T04:16:13.901Z,2.90
2023-03-12T04:18:42.286Z,2.97
2023-03-12T04:21:11.824Z,3.03
2023-03-12T04:23:40.680Z,3.00
2023-03-12T04:26:08.555Z,2.85
2023-03-12T04:28:37.242Z,3.40
2023-03-12T04:31:07.309Z,2.97
2023-03-12T04:33:37.667Z,2.87
2023-03-12T04:36:06.429Z,4.05
2023-03-12T04:38:35.169Z,3.40
2023-03-12T04:41:13.089Z,3.40
2023-03-12T04:43:41.812Z,3.17
2023-03-12T04:46:10.086Z,3.72
2023-03-12T04:48:38.053Z,3.35
2023-03-12T04:51:07.662Z,3.92
2023-03-12T04:53:35.611Z,3.20
2023-03-12T04:56:03.324Z,3.85
2023-03-12T04:58:32.713Z,4.75
2023-03-12T05:01:00.473Z,3.70
2023-03-12T05:03:28.839Z,3.55
2023-03-12T05:05:57.766Z,3.73
2023-03-12T05:08:25.464Z,3.58
2023-03-12T05:10:52.987Z,3.45
2023-03-12T05:13:22.314Z,3.70
2023-03-12T05:15:51.992Z,3.87
2023-03-12T05:18:21.582Z,4.27
2023-03-12T05:21:04.946Z,3.60
2023-03-12T05:23:33.246Z,4.20
2023-03-12T05:26:01.129Z,4.35
2023-03-12T05:28:29.376Z,3.85
2023-03-12T05:30:58.774Z,4.60
2023-03-12T05:33:28.261Z,4.95
2023-03-12T05:35:56.012Z,4.28
2023-03-12T05:38:24.104Z,4.50
2023-03-12T05:40:59.196Z,3.95
2023-03-12T05:43:28.097Z,3.90
2023-03-12T05:46:01.051Z,4.45
2023-03-12T05:48:29.026Z,3.65
2023-03-12T05:50:57.779Z,4.30
2023-03-12T05:53:25.418Z,4.22
2023-03-12T05:55:53.527Z,3.90
2023-03-12T05:58:21.503Z,4.03
2023-03-12T06:00:49.412Z,4.87
2023-03-12T06:03:17.298Z,4.43
2023-03-12T06:05:45.693Z,4.28
2023-03-12T06:08:13.544Z,4.07
2023-03-12T06:10:42.747Z,3.80
2023-03-12T06:13:11.749Z,4.28
2023-03-12T06:15:39.441Z,4.47
2023-03-12T06:18:07.640Z,5.12
2023-03-12T06:20:35.680Z,4.43
2023-03-12T06:23:03.354Z,4.62
2023-03-12T06:25:32.186Z,5.30
2023-03-12T06:27:59.705Z,4.55
2023-03-12T06:30:27.806Z,4.03
2023-03-12T06:32:55.749Z,3.97
2023-03-12T06:35:23.358Z,4.90
2023-03-12T06:37:50.859Z,4.95
2023-03-12T06:40:18.739Z,4.47
2023-03-12T06:42:46.362Z,4.55
2023-03-12T06:45:13.962Z,3.87
2023-03-12T06:47:41.711Z,3.92
2023-03-12T06:50:10.268Z,5.03
2023-03-12T06:52:37.833Z,6.05
2023-03-12T06:55:06.106Z,4.62
2023-03-12T06:57:33.638Z,3.63
2023-03-12T07:00:01.332Z,3.72
2023-03-12T07:02:29.311Z,3.95
2023-03-12T07:04:58.085Z,5.40
2023-03-12T07:07:25.633Z,4.50
2023-03-12T07:09:53.441Z,3.80
2023-03-12T07:12:21.017Z,4.70
2023-03-12T07:14:48.630Z,5.10
2023-03-12T07:17:16.439Z,3.80
2023-03-12T07:19:44.106Z,4.32
2023-03-12T07:22:11.654Z,4.20
2023-03-12T07:24:39.541Z,3.60
2023-03-12T07:27:07.069Z,4.95
2023-03-12T07:29:34.640Z,5.18
2023-03-12T07:32:02.614Z,5.45
2023-03-12T07:34:30.292Z,3.70
2023-03-12T07:36:58.096Z,3.70
2023-03-12T07:39:26.333Z,3.42
2023-03-12T07:41:53.895Z,3.37
2023-03-12T07:44:21.407Z,3.72
2023-03-12T07:46:49.457Z,3.20
2023-03-12T07:49:17.106Z,3.37
2023-03-12T07:51:44.760Z,3.87
2023-03-12T07:54:12.834Z,3.78
2023-03-12T07:56:40.602Z,4.18
2023-03-12T07:59:08.279Z,3.83
2023-03-12T08:01:36.470Z,4.03
2023-03-12T08:04:04.666Z,4.30
2023-03-12T08:06:32.388Z,4.05
2023-03-12T08:08:59.866Z,3.08
2023-03-12T08:11:28.438Z,3.47
2023-03-12T08:13:55.901Z,3.00
2023-03-12T08:16:23.433Z,3.05
2023-03-12T08:18:51.377Z,3.85
2023-03-12T08:21:19.087Z,3.10
2023-03-12T08:23:46.576Z,3.33
2023-03-12T08:26:14.320Z,3.12
2023-03-12T08:28:42.103Z,3.30
2023-03-12T08:31:10.314Z,3.95
2023-03-12T08:33:41.305Z,3.78
2023-03-12T08:36:09.741Z,3.93
2023-03-12T08:38:37.229Z,2.90
2023-03-12T08:41:05.148Z,3.00
2023-03-12T08:43:32.650Z,2.58
2023-03-12T08:46:01.864Z,2.60
2023-03-12T08:48:31.514Z,2.93
2023-03-12T08:51:00.371Z,2.90
2023-03-12T08:53:28.128Z,3.30
2023-03-12T08:55:56.783Z,2.80
2023-03-12T08:58:25.116Z,3.42
2023-03-12T09:00:53.063Z,2.80
2023-03-12T09:03:21.707Z,3.10
2023-03-12T09:05:49.573Z,3.00
2023-03-12T09:08:17.787Z,3.25
2023-03-12T09:10:50.254Z,3.08
2023-03-12T09:13:17.786Z,2.60
2023-03-12T09:15:45.576Z,3.45
2023-03-12T09:18:13.455Z,2.83
2023-03-12T09:20:42.899Z,3.47
2023-03-12T09:23:10.652Z,3.37
2023-03-12T09:25:38.398Z,3.07
2023-03-12T09:28:05.859Z,3.17
2023-03-12T09:30:33.975Z,2.65
2023-03-12T09:33:01.664Z,2.47
2023-03-12T09:35:31.516Z,2.67
2023-03-12T09:37:59.835Z,2.50
2023-03-12T09:40:30.266Z,2.70
2023-03-12T09:43:03.923Z,2.55
2023-03-12T09:45:36.794Z,2.55
2023-03-12T09:48:07.134Z,2.83
2023-03-12T09:50:40.985Z,2.83
2023-03-12T09:53:12.322Z,2.87
2023-03-12T09:55:42.533Z,3.28
2023-03-12T09:58:15.558Z,4.87
2023-03-12T10:00:43.433Z,2.50
2023-03-12T10:03:27.169Z,2.50
2023-03-12T10:06:20.889Z,2.70
2023-03-12T10:09:07.312Z,2.50
2023-03-12T10:11:39.184Z,3.00
2023-03-12T10:14:23.370Z,2.97
2023-03-12T10:17:06.950Z,2.90
2023-03-12T10:19:42.634Z,2.78
2023-03-12T10:22:20.195Z,3.10
2023-03-12T10:25:12.989Z,3.33
2023-03-12T10:27:40.806Z,3.67
2023-03-12T10:30:24.465Z,2.87
2023-03-12T10:32:56.765Z,3.97
2023-03-12T10:35:26.859Z,2.90
2023-03-12T10:37:59.680Z,3.70
2023-03-12T10:40:45.458Z,2.85
2023-03-12T10:43:13.026Z,3.20
2023-03-12T10:45:44.005Z,3.15
2023-03-12T10:48:19.722Z,3.17
2023-03-12T10:51:08.915Z,3.12
2023-03-12T10:53:39.387Z,3.53
2023-03-12T10:56:12.677Z,3.30
2023-03-12T10:59:00.043Z,2.55
2023-03-12T11:01:30.663Z,5.30
2023-03-12T11:04:18.189Z,3.12
2023-03-12T11:07:12.823Z,3.50
2023-03-12T11:09:40.550Z,3.43
2023-03-12T11:12:27.742Z,3.53
2023-03-12T11:14:55.244Z,3.50
2023-03-12T11:17:28.682Z,2.72
2023-03-12T11:19:58.073Z,3.40
2023-03-12T11:22:34.143Z,2.93
2023-03-12T11:25:07.389Z,2.55
2023-03-12T11:27:44.924Z,3.00
2023-03-12T11:30:15.672Z,2.75
2023-03-12T11:32:46.341Z,2.80
2023-03-12T11:35:16.244Z,3.20
2023-03-12T11:38:08.056Z,3.15
2023-03-12T11:40:38.607Z,3.22
2023-03-12T11:43:32.335Z,3.10
2023-03-12T11:46:28.117Z,3.17
2023-03-12T11:48:58.848Z,2.80
2023-03-12T11:51:45.261Z,3.05
2023-03-12T11:54:31.190Z,2.85
2023-03-12T11:57:09.587Z,2.80
2023-03-12T12:00:14.776Z,2.83
2023-03-12T12:03:00.806Z,2.70
2023-03-12T12:05:34.030Z,2.37
2023-03-12T12:08:20.711Z,2.97
2023-03-12T12:11:08.508Z,2.83
2023-03-12T12:13:57.974Z,2.83
2023-03-12T12:16:44.388Z,3.00
2023-03-12T12:19:33.956Z,2.72
2023-03-12T12:22:11.330Z,2.70
2023-03-12T12:24:54.417Z,2.90
2023-03-12T12:27:27.161Z,2.75
2023-03-12T12:30:20.875Z,2.57
2023-03-12T12:33:07.830Z,2.80
2023-03-12T12:35:40.441Z,3.15
2023-03-12T12:38:31.332Z,3.65
2023-03-12T12:41:14.004Z,2.60
2023-03-12T12:43:43.910Z,2.33
2023-03-12T12:46:18.392Z,2.97
2023-03-12T12:48:48.999Z,2.40
2023-03-12T12:51:20.888Z,2.37
2023-03-12T12:54:04.125Z,2.28
2023-03-12T12:56:39.513Z,2.07
2023-03-12T12:59:13.115Z,2.40
2023-03-12T13:01:41.212Z,2.47
2023-03-12T13:04:27.273Z,2.90
2023-03-12T13:06:55.033Z,2.37
2023-03-12T13:09:35.275Z,2.20
2023-03-12T13:12:22.425Z,2.70
2023-03-12T13:14:50.983Z,2.53
2023-03-12T13:17:25.814Z,2.37
2023-03-12T13:20:01.757Z,1.98
2023-03-12T13:23:17.320Z,2.23
2023-03-12T13:26:04.806Z,2.65
2023-03-12T13:28:36.203Z,2.45
2023-03-12T13:31:24.051Z,2.85
2023-03-12T13:33:54.385Z,2.58
2023-03-12T13:36:24.184Z,2.73
2023-03-12T13:38:57.100Z,2.67
2023-03-12T13:41:41.873Z,3.33
2023-03-12T13:44:29.010Z,2.72
2023-03-12T13:47:02.748Z,3.05
2023-03-12T13:49:58.411Z,2.90
2023-03-12T13:52:47.121Z,2.87
2023-03-12T13:55:15.016Z,3.15
2023-03-12T13:57:50.908Z,2.80
2023-03-12T14:00:25.926Z,3.35
2023-03-12T14:02:59.551Z,2.70
2023-03-12T14:05:27.749Z,2.53
2023-03-12T14:08:35.966Z,3.00
2023-03-12T14:11:18.009Z,2.45
2023-03-12T14:13:48.902Z,2.30
2023-03-12T14:16:42.631Z,3.03
2023-03-12T14:19:13.355Z,2.17
2023-03-12T14:21:43.916Z,2.15
2023-03-12T14:24:32.411Z,2.55
2023-03-12T14:27:02.085Z,2.00
2023-03-12T14:29:43.880Z,3.13
2023-03-12T14:32:17.689Z,2.40
2023-03-12T14:34:49.406Z,2.97
2023-03-12T14:37:20.179Z,2.80
2023-03-12T14:39:57.057Z,11.38
2023-03-12T14:42:29.721Z,4.60
2023-03-12T14:45:04.631Z,2.62
2023-03-12T14:47:40.972Z,2.40
2023-03-12T14:50:26.880Z,2.35
2023-03-12T14:52:55.927Z,2.78
2023-03-12T14:55:26.395Z,2.73
2023-03-12T14:58:14.580Z,2.30
2023-03-12T15:00:44.000Z,2.90
2023-03-12T15:03:15.510Z,2.50
2023-03-12T15:05:50.590Z,2.80
2023-03-12T15:08:18.903Z,2.43
2023-03-12T15:11:04.995Z,2.50
2023-03-12T15:13:32.731Z,2.28
2023-03-12T15:16:00.867Z,2.50
2023-03-12T15:18:30.436Z,3.15
2023-03-12T15:20:59.439Z,2.80
2023-03-12T15:23:30.303Z,2.10
2023-03-12T15:26:26.334Z,2.58
2023-03-12T15:29:17.297Z,2.80
2023-03-12T15:31:47.386Z,2.75
2023-03-12T15:34:27.141Z,2.60
2023-03-12T15:37:32.562Z,2.30
2023-03-12T15:40:02.641Z,2.37
2023-03-12T15:42:38.697Z,3.28
2023-03-12T15:45:15.258Z,2.92
2023-03-12T15:47:42.921Z,3.70
2023-03-12T15:50:23.643Z,5.90
2023-03-12T15:53:11.609Z,2.97
2023-03-12T15:55:41.748Z,3.37
2023-03-12T15:58:29.949Z,4.60
2023-03-12T16:01:12.965Z,2.63
2023-03-12T16:03:42.840Z,2.80
2023-03-12T16:06:16.560Z,3.40
2023-03-12T16:08:50.557Z,4.43
2023-03-12T16:11:21.135Z,5.43
2023-03-12T16:13:50.752Z,3.40
2023-03-12T16:16:18.508Z,3.45
2023-03-12T16:18:46.728Z,4.65
2023-03-12T16:21:15.168Z,4.78
2023-03-12T16:23:42.754Z,5.82
2023-03-12T16:26:11.936Z,10.00
2023-03-12T16:28:40.112Z,7.35
2023-03-12T16:31:15.063Z,10.90
2023-03-12T16:33:44.693Z,10.15
2023-03-12T16:36:17.193Z,9.20
2023-03-12T16:38:46.351Z,9.80
2023-03-12T16:41:15.326Z,10.02
2023-03-12T16:43:47.160Z,11.15
2023-03-12T16:46:18.699Z,10.55
2023-03-12T16:48:50.920Z,14.15
2023-03-12T16:51:19.110Z,16.80
2023-03-12T16:53:51.049Z,15.55
2023-03-12T16:56:27.614Z,21.70
2023-03-12T16:58:55.507Z,24.35
2023-03-12T17:01:24.590Z,21.73
2023-03-12T17:03:54.700Z,22.70
2023-03-12T17:06:24.424Z,44.17
2023-03-12T17:08:53.693Z,45.28
2023-03-12T17:11:27.075Z,39.88
2023-03-12T17:13:58.497Z,23.15
2023-03-12T17:16:26.738Z,19.87
2023-03-12T17:18:54.653Z,20.60
2023-03-12T17:21:23.515Z,19.95
2023-03-12T17:23:51.248Z,21.25
2023-03-12T17:26:19.174Z,20.17
2023-03-12T17:28:47.693Z,18.13
2023-03-12T17:31:15.635Z,19.80
2023-03-12T17:33:45.224Z,19.25
2023-03-12T17:36:13.317Z,17.65
2023-03-12T17:38:41.217Z,17.85
2023-03-12T17:41:25.121Z,15.97
2023-03-12T17:43:55.320Z,16.42
2023-03-12T17:46:23.215Z,17.33
2023-03-12T17:48:51.083Z,17.83
2023-03-12T17:51:18.974Z,17.60
2023-03-12T17:53:47.314Z,17.23
2023-03-12T17:56:17.959Z,16.92
2023-03-12T17:58:46.032Z,18.17
2023-03-12T18:01:14.576Z,17.77
2023-03-12T18:03:44.077Z,16.58
2023-03-12T18:06:12.377Z,18.17
2023-03-12T18:08:40.550Z,18.00
2023-03-12T18:11:08.632Z,17.30
2023-03-12T18:13:36.407Z,14.93
2023-03-12T18:16:04.871Z,16.60
2023-03-12T18:18:33.279Z,15.90
2023-03-12T18:21:00.845Z,17.35
2023-03-12T18:23:28.643Z,18.08
2023-03-12T18:25:56.567Z,19.52
2023-03-12T18:28:24.561Z,19.90
2023-03-12T18:30:53.829Z,21.27
2023-03-12T18:33:21.644Z,19.25
2023-03-12T18:35:49.575Z,19.08
2023-03-12T18:38:17.103Z,19.30
2023-03-12T18:40:45.236Z,19.83
2023-03-12T18:43:13.569Z,19.47
2023-03-12T18:45:43.834Z,19.42
2023-03-12T18:48:11.867Z,21.20
2023-03-12T18:50:39.785Z,22.80
2023-03-12T18:53:07.558Z,22.65
2023-03-12T18:55:35.709Z,24.63
2023-03-12T18:58:03.622Z,25.88
2023-03-12T19:00:31.734Z,26.92
2023-03-12T19:03:00.016Z,28.73
2023-03-12T19:05:27.775Z,28.35
2023-03-12T19:07:55.727Z,26.37
2023-03-12T19:10:24.367Z,26.52
2023-03-12T19:12:53.944Z,27.95
2023-03-12T19:15:24.207Z,26.70
2023-03-12T19:17:54.078Z,25.65
2023-03-12T19:20:22.535Z,27.50
2023-03-12T19:22:50.596Z,26.55
2023-03-12T19:25:18.701Z,27.58
2023-03-12T19:27:46.586Z,26.25
2023-03-12T19:30:14.892Z,33.10
2023-03-12T19:32:44.496Z,23.50
2023-03-12T19:35:13.872Z,17.37
2023-03-12T19:37:42.083Z,16.33
2023-03-12T19:40:11.044Z,16.52
2023-03-12T19:42:39.111Z,15.73
2023-03-12T19:45:07.367Z,17.43
2023-03-12T19:47:35.485Z,15.82
2023-03-12T19:50:03.682Z,17.45
2023-03-12T19:52:31.834Z,17.15
2023-03-12T19:55:05.407Z,16.75
2023-03-12T19:57:34.208Z,16.30
2023-03-12T20:00:02.720Z,19.60
2023-03-12T20:02:32.267Z,22.70
2023-03-12T20:05:00.823Z,19.65
2023-03-12T20:07:28.740Z,20.42
2023-03-12T20:09:57.092Z,16.40
2023-03-12T20:12:25.310Z,16.67
2023-03-12T20:14:53.124Z,17.70
2023-03-12T20:17:20.979Z,15.23
2023-03-12T20:19:49.673Z,14.00
2023-03-12T20:22:17.213Z,11.10
2023-03-12T20:24:45.102Z,8.20
2023-03-12T20:27:13.273Z,10.55
2023-03-12T20:29:43.392Z,10.75
2023-03-12T20:32:11.403Z,11.25
2023-03-12T20:34:39.527Z,12.43
2023-03-12T20:37:07.360Z,11.82
2023-03-12T20:39:35.610Z,12.70
2023-03-12T20:42:03.855Z,13.68
2023-03-12T20:44:31.550Z,14.05
2023-03-12T20:46:59.295Z,13.73
2023-03-12T20:49:27.398Z,15.52
2023-03-12T20:51:55.183Z,15.50
2023-03-12T20:54:23.114Z,15.30
2023-03-12T20:56:51.321Z,18.15
2023-03-12T20:59:19.184Z,17.43
2023-03-12T21:01:47.053Z,18.08
2023-03-12T21:04:15.427Z,19.05
2023-03-12T21:06:43.153Z,17.42
2023-03-12T21:09:10.897Z,18.52
2023-03-12T21:11:40.229Z,17.00
2023-03-12T21:14:08.025Z,15.95
2023-03-12T21:16:36.660Z,15.23
2023-03-12T21:19:04.695Z,12.57
2023-03-12T21:21:35.239Z,12.80
2023-03-12T21:24:02.778Z,14.47
2023-03-12T21:26:30.631Z,12.90
2023-03-12T21:28:58.315Z,12.50
2023-03-12T21:31:27.060Z,15.30
2023-03-12T21:33:56.220Z,17.02
2023-03-12T21:36:24.678Z,17.57
2023-03-12T21:38:52.756Z,18.52
2023-03-12T21:41:21.464Z,17.55
2023-03-12T21:43:49.289Z,18.62
2023-03-12T21:46:19.481Z,19.70
2023-03-12T21:48:48.192Z,20.83
2023-03-12T21:51:16.857Z,25.15
2023-03-12T21:53:44.688Z,29.15
2023-03-12T21:56:12.664Z,22.98
2023-03-12T21:58:40.230Z,19.73
2023-03-12T22:01:13.081Z,18.33
2023-03-12T22:03:42.528Z,14.70
2023-03-12T22:06:10.955Z,15.43
2023-03-12T22:08:39.091Z,14.90
2023-03-12T22:11:08.069Z,14.82
2023-03-12T22:13:36.766Z,15.57
2023-03-12T22:16:06.923Z,15.05
2023-03-12T22:18:44.994Z,14.60
2023-03-12T22:21:15.585Z,15.48
2023-03-12T22:23:43.485Z,14.98
2023-03-12T22:26:11.055Z,13.17
2023-03-12T22:28:38.544Z,12.85
2023-03-12T22:31:08.851Z,12.55
2023-03-12T22:33:37.275Z,12.50
2023-03-12T22:36:07.150Z,13.05
2023-03-12T22:38:39.437Z,13.60
2023-03-12T22:41:16.590Z,13.65
2023-03-12T22:43:45.429Z,14.32
2023-03-12T22:46:13.362Z,14.57
2023-03-12T22:48:41.007Z,13.82
2023-03-12T22:51:08.893Z,15.47
2023-03-12T22:53:36.626Z,15.25
2023-03-12T22:56:06.702Z,16.15
2023-03-12T22:58:35.104Z,16.10
2023-03-12T23:01:22.823Z,16.77
2023-03-12T23:03:51.182Z,14.70
2023-03-12T23:06:23.981Z,14.95
2023-03-12T23:08:54.805Z,16.17
2023-03-12T23:11:25.312Z,14.48
2023-03-12T23:13:53.800Z,14.77
2023-03-12T23:16:23.633Z,16.27
2023-03-12T23:18:51.400Z,15.77
2023-03-12T23:21:23.662Z,15.75
2023-03-12T23:23:51.791Z,15.65
2023-03-12T23:26:22.644Z,14.55
2023-03-12T23:28:53.526Z,16.00
2023-03-12T23:31:22.479Z,14.85
2023-03-12T23:33:50.934Z,14.65
2023-03-12T23:36:21.028Z,13.35
2023-03-12T23:38:50.249Z,13.65
2023-03-12T23:41:21.090Z,13.67
2023-03-12T23:43:49.283Z,13.68
2023-03-12T23:46:19.725Z,13.50
2023-03-12T23:48:47.716Z,13.25
2023-03-12T23:51:18.332Z,12.80
2023-03-12T23:53:48.214Z,12.50
2023-03-12T23:56:18.744Z,12.73
2023-03-12T23:58:46.625Z,13.07
